createdAt,value
2018-08-18T00:00:15.567Z,5.17
2018-08-18T00:02:44.101Z,4.33
2018-08-18T00:05:13.521Z,5.23
2018-08-18T00:07:42.007Z,5.30
2018-08-18T00:10:11.673Z,4.70
2018-08-18T00:12:40.168Z,4.23
2018-08-18T00:15:09.773Z,5.30
2018-08-18T00:17:38.874Z,4.80
2018-08-18T00:20:10.045Z,5.47
2018-08-18T00:22:38.539Z,4.90
2018-08-18T00:25:07.362Z,4.70
2018-08-18T00:27:35.827Z,4.67
2018-08-18T00:30:10.235Z,4.80
2018-08-18T00:32:38.757Z,5.20
2018-08-18T00:35:08.144Z,4.87
2018-08-18T00:37:36.853Z,4.80
2018-08-18T00:40:06.830Z,6.97
2018-08-18T00:42:35.332Z,6.10
2018-08-18T00:45:03.970Z,5.87
2018-08-18T00:47:32.548Z,5.73
2018-08-18T00:50:01.065Z,5.90
2018-08-18T00:52:29.632Z,5.30
2018-08-18T00:54:58.116Z,5.13
2018-08-18T00:57:28.936Z,5.67
2018-08-18T00:59:57.553Z,5.37
2018-08-18T01:02:26.629Z,5.20
2018-08-18T01:05:02.122Z,5.33
2018-08-18T01:07:31.688Z,5.10
2018-08-18T01:10:00.577Z,5.43
2018-08-18T01:12:29.393Z,6.00
2018-08-18T01:14:58.384Z,5.50
2018-08-18T01:17:26.920Z,5.13
2018-08-18T01:19:57.065Z,5.67
2018-08-18T01:22:25.561Z,5.73
2018-08-18T01:24:54.474Z,6.57
2018-08-18T01:27:23.093Z,5.90
2018-08-18T01:30:06.823Z,6.67
2018-08-18T01:32:35.352Z,5.93
2018-08-18T01:35:03.881Z,6.50
2018-08-18T01:37:33.007Z,6.80
2018-08-18T01:40:01.747Z,7.30
2018-08-18T01:42:32.541Z,6.83
2018-08-18T01:45:01.048Z,7.10
2018-08-18T01:47:29.620Z,6.87
2018-08-18T01:49:59.621Z,9.77
2018-08-18T01:52:28.130Z,7.90
2018-08-18T01:54:56.585Z,7.53
2018-08-18T01:57:25.070Z,7.60
2018-08-18T01:59:53.520Z,8.10
2018-08-18T02:02:24.879Z,8.00
2018-08-18T02:04:53.697Z,8.67
2018-08-18T02:07:27.564Z,9.07
2018-08-18T02:09:56.532Z,9.53
2018-08-18T02:12:25.544Z,10.60
2018-08-18T02:14:54.410Z,8.63
2018-08-18T02:17:36.873Z,9.27
2018-08-18T02:20:08.831Z,10.20
2018-08-18T02:22:37.302Z,9.30
2018-08-18T02:25:06.398Z,10.30
2018-08-18T02:27:34.950Z,9.90
2018-08-18T02:30:23.713Z,11.20
2018-08-18T02:32:52.214Z,11.33
2018-08-18T02:35:22.170Z,11.67
2018-08-18T02:37:50.675Z,10.50
2018-08-18T02:40:19.315Z,10.80
2018-08-18T02:42:47.761Z,11.10
2018-08-18T02:45:16.856Z,11.13
2018-08-18T02:47:45.352Z,11.93
2018-08-18T02:50:14.557Z,11.80
2018-08-18T02:52:43.050Z,11.93
2018-08-18T02:55:12.166Z,11.63
2018-08-18T02:57:44.669Z,11.80
2018-08-18T03:00:19.663Z,11.17
2018-08-18T03:02:48.362Z,11.73
2018-08-18T03:05:16.893Z,12.00
2018-08-18T03:07:49.240Z,13.10
2018-08-18T03:10:24.569Z,12.30
2018-08-18T03:12:56.393Z,12.87
2018-08-18T03:16:04.962Z,14.90
2018-08-18T03:18:55.200Z,13.67
2018-08-18T03:21:29.960Z,14.77
2018-08-18T03:24:09.549Z,15.33
2018-08-18T03:26:45.423Z,13.37
2018-08-18T03:29:14.892Z,14.27
2018-08-18T03:31:43.766Z,14.97
2018-08-18T03:34:12.801Z,14.13
2018-08-18T03:36:43.977Z,13.57
2018-08-18T03:39:20.197Z,14.20
2018-08-18T03:41:48.971Z,14.03
2018-08-18T03:44:17.489Z,13.80
2018-08-18T03:46:46.118Z,13.23
2018-08-18T03:49:14.651Z,13.90
2018-08-18T03:51:46.192Z,14.97
2018-08-18T03:54:14.827Z,15.63
2018-08-18T03:56:43.535Z,14.00
2018-08-18T03:59:12.059Z,14.30
2018-08-18T04:01:52.429Z,15.27
2018-08-18T04:04:21.980Z,15.27
2018-08-18T04:06:51.686Z,15.00
2018-08-18T04:09:21.346Z,13.73
2018-08-18T04:11:49.949Z,14.10
2018-08-18T04:14:21.529Z,14.90
2018-08-18T04:16:51.125Z,12.57
2018-08-18T04:19:20.668Z,13.60
2018-08-18T04:21:50.626Z,14.93
2018-08-18T04:24:19.101Z,15.77
2018-08-18T04:26:48.221Z,15.67
2018-08-18T04:29:16.750Z,14.77
2018-08-18T04:31:45.197Z,13.90
2018-08-18T04:34:13.689Z,15.20
2018-08-18T04:36:42.165Z,15.13
2018-08-18T04:39:12.784Z,15.43
2018-08-18T04:41:41.906Z,14.20
2018-08-18T04:44:10.425Z,13.80
2018-08-18T04:46:38.931Z,16.43
2018-08-18T04:49:07.454Z,14.07
2018-08-18T04:51:36.092Z,14.10
2018-08-18T04:54:04.940Z,15.17
2018-08-18T04:56:33.541Z,14.20
2018-08-18T04:59:02.062Z,14.90
2018-08-18T05:01:30.557Z,15.60
2018-08-18T05:04:03.145Z,15.57
2018-08-18T05:06:32.510Z,13.70
2018-08-18T05:09:02.332Z,15.17
2018-08-18T05:11:31.005Z,13.50
2018-08-18T05:13:59.577Z,12.33
2018-08-18T05:16:28.225Z,14.27
2018-08-18T05:18:56.746Z,13.70
2018-08-18T05:21:25.498Z,14.40
2018-08-18T05:23:54.244Z,12.77
2018-08-18T05:26:22.888Z,12.97
2018-08-18T05:28:51.397Z,11.57
2018-08-18T05:31:21.223Z,11.57
2018-08-18T05:33:49.984Z,10.77
2018-08-18T05:36:18.530Z,11.13
2018-08-18T05:38:47.007Z,12.07
2018-08-18T05:41:15.509Z,10.40
2018-08-18T05:43:44.029Z,11.20
2018-08-18T05:46:12.519Z,10.97
2018-08-18T05:48:41.012Z,11.10
2018-08-18T05:51:09.510Z,9.90
2018-08-18T05:53:38.018Z,10.60
2018-08-18T05:56:06.533Z,9.50
2018-08-18T05:58:50.159Z,9.20
2018-08-18T06:01:27.482Z,7.33
2018-08-18T06:04:04.132Z,8.60
2018-08-18T06:06:32.829Z,7.10
2018-08-18T06:09:01.353Z,8.40
2018-08-18T06:11:29.875Z,6.67
2018-08-18T06:13:58.425Z,7.43
2018-08-18T06:16:26.910Z,6.50
2018-08-18T06:18:55.470Z,6.80
2018-08-18T06:21:24.029Z,7.33
2018-08-18T06:23:52.577Z,7.17
2018-08-18T06:26:21.044Z,7.20
2018-08-18T06:28:49.601Z,7.73
2018-08-18T06:31:18.080Z,6.90
2018-08-18T06:33:46.721Z,7.67
2018-08-18T06:36:15.274Z,6.60
2018-08-18T06:38:43.761Z,6.43
2018-08-18T06:41:12.407Z,6.67
2018-08-18T06:43:40.810Z,6.40
2018-08-18T06:46:09.382Z,6.13
2018-08-18T06:48:38.521Z,5.20
2018-08-18T06:51:07.591Z,5.50
2018-08-18T06:53:41.336Z,6.10
2018-08-18T06:56:10.079Z,5.87
2018-08-18T06:58:38.609Z,6.63
2018-08-18T07:01:07.663Z,7.00
2018-08-18T07:03:38.113Z,7.70
2018-08-18T07:06:07.251Z,6.90
2018-08-18T07:08:41.076Z,7.07
2018-08-18T07:11:10.218Z,7.10
2018-08-18T07:13:38.829Z,7.30
2018-08-18T07:16:07.604Z,6.70
2018-08-18T07:18:36.179Z,7.03
2018-08-18T07:21:04.748Z,7.07
2018-08-18T07:23:33.248Z,6.90
2018-08-18T07:26:02.596Z,6.07
2018-08-18T07:28:31.097Z,6.80
2018-08-18T07:30:59.680Z,6.47
2018-08-18T07:33:28.166Z,6.53
2018-08-18T07:35:56.706Z,7.17
2018-08-18T07:38:25.207Z,6.27
2018-08-18T07:40:54.667Z,5.43
2018-08-18T07:43:25.269Z,5.97
2018-08-18T07:45:54.922Z,5.73
2018-08-18T07:48:23.414Z,5.60
2018-08-18T07:50:51.961Z,4.80
2018-08-18T07:53:20.542Z,5.97
2018-08-18T07:55:49.067Z,5.73
2018-08-18T07:58:19.541Z,6.23
2018-08-18T08:00:48.238Z,4.33
2018-08-18T08:03:17.505Z,4.13
2018-08-18T08:05:46.068Z,5.03
2018-08-18T08:08:14.591Z,5.17
2018-08-18T08:10:43.210Z,4.53
2018-08-18T08:13:12.951Z,4.07
2018-08-18T08:15:41.700Z,3.10
2018-08-18T08:18:12.276Z,3.23
2018-08-18T08:20:40.777Z,3.90
2018-08-18T08:23:09.289Z,2.80
2018-08-18T08:25:37.882Z,3.13
2018-08-18T08:28:06.445Z,2.50
2018-08-18T08:30:34.934Z,2.00
2018-08-18T08:33:03.476Z,2.50
2018-08-18T08:35:32.050Z,2.60
2018-08-18T08:38:00.647Z,2.50
2018-08-18T08:40:29.619Z,2.33
2018-08-18T08:42:58.201Z,2.37
2018-08-18T08:45:26.721Z,2.57
2018-08-18T08:47:56.072Z,2.70
2018-08-18T08:50:25.164Z,2.87
2018-08-18T08:52:56.474Z,2.93
2018-08-18T08:55:26.249Z,3.23
2018-08-18T08:57:54.766Z,2.70
2018-08-18T09:00:23.389Z,2.73
2018-08-18T09:02:51.918Z,3.23
2018-08-18T09:05:20.804Z,2.90
2018-08-18T09:07:49.328Z,3.07
2018-08-18T09:10:18.322Z,2.73
2018-08-18T09:12:46.862Z,2.73
2018-08-18T09:15:16.505Z,2.57
2018-08-18T09:17:45.102Z,3.90
2018-08-18T09:20:16.279Z,2.50
2018-08-18T09:22:56.052Z,1.97
2018-08-18T09:25:26.081Z,2.40
2018-08-18T09:27:55.793Z,2.60
2018-08-18T09:30:25.767Z,2.10
2018-08-18T09:32:54.400Z,2.50
2018-08-18T09:35:23.061Z,2.90
2018-08-18T09:37:56.809Z,1.93
2018-08-18T09:40:25.375Z,3.23
2018-08-18T09:42:53.833Z,2.37
2018-08-18T09:45:22.413Z,2.30
2018-08-18T09:47:50.901Z,3.07
2018-08-18T09:50:19.409Z,2.50
2018-08-18T09:52:47.960Z,2.93
2018-08-18T09:55:16.501Z,2.97
2018-08-18T09:57:44.994Z,2.57
2018-08-18T10:00:14.940Z,2.73
2018-08-18T10:02:43.635Z,2.53
2018-08-18T10:05:12.246Z,2.13
2018-08-18T10:07:40.766Z,2.63
2018-08-18T10:10:11.194Z,2.30
2018-08-18T10:12:39.852Z,2.40
2018-08-18T10:15:08.525Z,2.50
2018-08-18T10:17:37.105Z,2.47
2018-08-18T10:20:06.510Z,2.00
2018-08-18T10:22:35.009Z,2.57
2018-08-18T10:25:04.061Z,2.30
2018-08-18T10:27:32.576Z,3.20
2018-08-18T10:30:01.067Z,2.80
2018-08-18T10:32:29.610Z,2.47
2018-08-18T10:34:58.089Z,2.67
2018-08-18T10:37:26.585Z,2.63
2018-08-18T10:40:02.269Z,2.40
2018-08-18T10:42:32.109Z,3.20
2018-08-18T10:45:01.164Z,2.80
2018-08-18T10:47:30.073Z,2.60
2018-08-18T10:50:09.707Z,2.40
2018-08-18T10:52:49.352Z,2.97
2018-08-18T10:55:18.590Z,3.00
2018-08-18T10:58:08.537Z,2.93
2018-08-18T11:00:37.540Z,2.63
2018-08-18T11:03:07.156Z,3.17
2018-08-18T11:05:35.689Z,2.90
2018-08-18T11:08:06.157Z,3.20
2018-08-18T11:10:36.798Z,2.80
2018-08-18T11:13:05.402Z,2.67
2018-08-18T11:15:34.486Z,3.40
2018-08-18T11:18:03.314Z,2.90
2018-08-18T11:20:33.900Z,3.03
2018-08-18T11:23:17.784Z,3.33
2018-08-18T11:25:54.327Z,3.00
2018-08-18T11:28:23.826Z,2.80
2018-08-18T11:30:53.492Z,3.30
2018-08-18T11:33:36.109Z,3.17
2018-08-18T11:36:06.212Z,2.47
2018-08-18T11:38:35.299Z,3.20
2018-08-18T11:41:04.305Z,3.27
2018-08-18T11:43:41.061Z,3.47
2018-08-18T11:46:10.169Z,3.23
2018-08-18T11:48:39.125Z,2.53
2018-08-18T11:51:08.375Z,3.40
2018-08-18T11:53:47.110Z,3.60
2018-08-18T11:56:16.738Z,3.03
2018-08-18T11:58:50.489Z,3.40
2018-08-18T12:01:23.486Z,3.80
2018-08-18T12:03:52.702Z,3.27
2018-08-18T12:06:21.862Z,3.80
2018-08-18T12:08:50.879Z,3.60
2018-08-18T12:11:20.153Z,3.53
2018-08-18T12:13:49.308Z,3.13
2018-08-18T12:16:19.471Z,3.10
2018-08-18T12:18:49.221Z,2.83
2018-08-18T12:21:18.376Z,3.33
2018-08-18T12:23:48.820Z,4.00
2018-08-18T12:26:21.768Z,3.37
2018-08-18T12:28:53.396Z,3.63
2018-08-18T12:31:28.834Z,3.90
2018-08-18T12:33:57.642Z,4.20
2018-08-18T12:36:26.803Z,4.23
2018-08-18T12:38:57.905Z,3.80
2018-08-18T12:41:26.982Z,4.50
2018-08-18T12:43:57.883Z,3.90
2018-08-18T12:46:35.951Z,3.67
2018-08-18T12:49:06.499Z,4.00
2018-08-18T12:51:35.434Z,3.67
2018-08-18T12:54:04.603Z,3.80
2018-08-18T12:56:34.184Z,4.27
2018-08-18T12:59:03.201Z,4.77
2018-08-18T13:01:45.910Z,4.67
2018-08-18T13:04:17.287Z,4.87
2018-08-18T13:06:48.880Z,4.43
2018-08-18T13:09:19.553Z,4.03
2018-08-18T13:11:49.742Z,4.30
2018-08-18T13:14:20.997Z,4.53
2018-08-18T13:16:50.465Z,4.30
2018-08-18T13:19:21.547Z,4.90
2018-08-18T13:21:50.701Z,4.87
2018-08-18T13:24:19.702Z,4.97
2018-08-18T13:26:48.738Z,4.70
2018-08-18T13:29:17.912Z,5.23
2018-08-18T13:31:46.538Z,4.20
2018-08-18T13:34:16.421Z,4.20
2018-08-18T13:36:45.824Z,4.23
2018-08-18T13:39:15.701Z,5.13
2018-08-18T13:41:45.041Z,4.67
2018-08-18T13:44:18.437Z,4.77
2018-08-18T13:46:49.556Z,7.07
2018-08-18T13:49:21.703Z,4.50
2018-08-18T13:51:50.318Z,5.30
2018-08-18T13:54:18.900Z,7.47
2018-08-18T13:56:47.498Z,5.60
2018-08-18T13:59:27.202Z,4.07
2018-08-18T14:01:55.698Z,4.60
2018-08-18T14:04:29.434Z,4.87
2018-08-18T14:06:57.824Z,5.10
2018-08-18T14:09:26.345Z,6.20
2018-08-18T14:12:00.673Z,5.43
2018-08-18T14:14:29.174Z,5.50
2018-08-18T14:16:57.684Z,5.60
2018-08-18T14:19:26.141Z,5.70
2018-08-18T14:21:59.754Z,4.70
2018-08-18T14:24:35.034Z,5.17
2018-08-18T14:27:04.569Z,5.90
2018-08-18T14:29:33.977Z,5.50
2018-08-18T14:32:03.053Z,5.50
2018-08-18T14:34:31.553Z,6.00
2018-08-18T14:37:05.331Z,6.13
2018-08-18T14:39:37.789Z,6.30
2018-08-18T14:42:06.905Z,6.80
2018-08-18T14:44:35.859Z,6.63
2018-08-18T14:47:04.498Z,6.50
2018-08-18T14:49:33.133Z,6.77
2018-08-18T14:52:01.684Z,5.60
2018-08-18T14:54:31.264Z,6.33
2018-08-18T14:57:01.537Z,6.57
2018-08-18T14:59:34.199Z,6.37
2018-08-18T15:02:04.433Z,7.50
2018-08-18T15:04:33.485Z,7.37
2018-08-18T15:07:01.957Z,6.63
2018-08-18T15:09:41.793Z,6.87
2018-08-18T15:12:10.243Z,8.40
2018-08-18T15:14:38.755Z,7.73
2018-08-18T15:17:07.233Z,7.43
2018-08-18T15:19:35.722Z,7.80
2018-08-18T15:22:07.001Z,8.53
2018-08-18T15:24:35.569Z,10.77
2018-08-18T15:27:04.146Z,7.83
2018-08-18T15:29:32.751Z,7.37
2018-08-18T15:32:01.333Z,8.10
2018-08-18T15:34:29.935Z,7.10
2018-08-18T15:36:58.463Z,7.10
2018-08-18T15:39:28.562Z,6.73
2018-08-18T15:41:58.810Z,6.67
2018-08-18T15:44:27.293Z,8.07
2018-08-18T15:46:55.793Z,6.27
2018-08-18T15:49:24.308Z,6.70
2018-08-18T15:51:52.869Z,6.83
2018-08-18T15:54:23.796Z,6.60
2018-08-18T15:56:52.289Z,6.53
2018-08-18T15:59:20.797Z,7.40
2018-08-18T16:01:49.281Z,6.73
2018-08-18T16:04:17.794Z,5.93
2018-08-18T16:06:46.335Z,8.93
2018-08-18T16:09:14.838Z,5.87
2018-08-18T16:11:43.364Z,6.10
2018-08-18T16:14:11.828Z,6.43
2018-08-18T16:16:55.660Z,6.60
2018-08-18T16:19:24.593Z,6.80
2018-08-18T16:21:53.119Z,6.23
2018-08-18T16:24:38.909Z,6.00
2018-08-18T16:27:07.801Z,6.57
2018-08-18T16:29:36.778Z,6.20
2018-08-18T16:32:24.962Z,6.33
2018-08-18T16:35:00.343Z,6.27
2018-08-18T16:37:29.058Z,5.63
2018-08-18T16:39:56.688Z,6.10
2018-08-18T16:42:25.201Z,6.50
2018-08-18T16:44:53.657Z,6.63
2018-08-18T16:47:22.172Z,6.20
2018-08-18T16:49:50.710Z,6.70
2018-08-18T16:52:19.233Z,7.20
2018-08-18T16:54:47.731Z,8.17
2018-08-18T16:57:16.249Z,8.13
2018-08-18T16:59:44.781Z,7.70
2018-08-18T17:02:28.561Z,7.90
2018-08-18T17:04:57.082Z,8.07
2018-08-18T17:07:26.670Z,8.07
2018-08-18T17:09:55.398Z,7.20
2018-08-18T17:12:27.405Z,7.00
2018-08-18T17:14:55.918Z,6.83
2018-08-18T17:17:25.170Z,7.27
2018-08-18T17:19:53.714Z,7.20
2018-08-18T17:22:22.325Z,7.03
2018-08-18T17:24:50.867Z,7.63
2018-08-18T17:27:19.425Z,9.50
2018-08-18T17:29:49.713Z,8.10
2018-08-18T17:32:18.202Z,8.30
2018-08-18T17:34:46.724Z,8.23
2018-08-18T17:37:15.232Z,9.17
2018-08-18T17:39:43.759Z,8.10
2018-08-18T17:42:12.445Z,8.63
2018-08-18T17:44:41.196Z,9.37
2018-08-18T17:47:11.017Z,9.47
2018-08-18T17:49:45.959Z,9.40
2018-08-18T17:52:14.519Z,8.27
2018-08-18T17:54:44.464Z,8.80
2018-08-18T17:57:13.008Z,9.57
2018-08-18T17:59:41.628Z,9.20
2018-08-18T18:02:12.545Z,8.60
2018-08-18T18:04:41.034Z,9.00
2018-08-18T18:07:10.575Z,8.87
2018-08-18T18:09:39.156Z,8.70
2018-08-18T18:12:30.355Z,9.27
2018-08-18T18:14:58.945Z,9.13
2018-08-18T18:17:27.971Z,9.10
2018-08-18T18:19:59.504Z,8.60
2018-08-18T18:22:40.338Z,8.80
2018-08-18T18:25:08.928Z,9.40
2018-08-18T18:27:37.426Z,9.60
2018-08-18T18:30:06.036Z,9.63
2018-08-18T18:32:34.533Z,9.70
2018-08-18T18:35:03.268Z,9.30
2018-08-18T18:37:31.773Z,9.47
2018-08-18T18:40:02.403Z,9.30
2018-08-18T18:42:30.950Z,9.10
2018-08-18T18:44:59.893Z,9.30
2018-08-18T18:47:29.144Z,9.23
2018-08-18T18:49:57.642Z,9.43
2018-08-18T18:52:26.310Z,9.60
2018-08-18T18:54:57.512Z,9.70
2018-08-18T18:57:26.152Z,11.10
2018-08-18T19:00:01.058Z,10.80
2018-08-18T19:02:39.554Z,9.80
2018-08-18T19:05:16.670Z,11.10
2018-08-18T19:07:45.457Z,11.00
2018-08-18T19:10:13.962Z,11.70
2018-08-18T19:12:42.509Z,11.10
2018-08-18T19:15:11.039Z,11.20
2018-08-18T19:17:39.564Z,10.90
2018-08-18T19:20:40.722Z,11.33
2018-08-18T19:23:14.565Z,10.93
2018-08-18T19:25:44.113Z,11.60
2018-08-18T19:28:14.076Z,11.00
2018-08-18T19:30:42.669Z,12.00
2018-08-18T19:33:12.295Z,11.37
2018-08-18T19:35:42.236Z,10.90
2018-08-18T19:38:10.959Z,11.40
2018-08-18T19:40:41.002Z,11.37
2018-08-18T19:43:14.711Z,10.90
2018-08-18T19:45:43.408Z,11.40
2018-08-18T19:48:13.177Z,11.40
2018-08-18T19:50:51.256Z,11.03
2018-08-18T19:53:22.657Z,11.80
2018-08-18T19:55:51.597Z,13.17
2018-08-18T19:58:20.211Z,13.10
2018-08-18T20:00:48.799Z,11.87
2018-08-18T20:03:18.272Z,11.07
2018-08-18T20:05:47.081Z,11.50
2018-08-18T20:08:16.685Z,11.40
2018-08-18T20:10:50.481Z,12.27
2018-08-18T20:13:19.820Z,13.10
2018-08-18T20:15:49.581Z,11.97
2018-08-18T20:18:18.688Z,13.43
2018-08-18T20:20:47.410Z,12.17
2018-08-18T20:23:17.138Z,13.67
2018-08-18T20:25:46.073Z,11.60
2018-08-18T20:28:14.857Z,13.93
2018-08-18T20:30:43.604Z,12.80
2018-08-18T20:33:12.129Z,13.40
2018-08-18T20:35:40.629Z,13.70
2018-08-18T20:38:09.267Z,13.77
2018-08-18T20:40:38.060Z,13.10
2018-08-18T20:43:06.528Z,14.70
2018-08-18T20:45:50.449Z,13.33
2018-08-18T20:48:21.235Z,13.80
2018-08-18T20:50:50.134Z,15.10
2018-08-18T20:53:19.337Z,14.63
2018-08-18T20:55:57.282Z,14.37
2018-08-18T20:58:26.276Z,14.63
2018-08-18T21:00:54.890Z,14.63
2018-08-18T21:03:34.631Z,13.80
2018-08-18T21:06:03.525Z,13.77
2018-08-18T21:08:32.046Z,14.20
2018-08-18T21:11:00.692Z,13.43
2018-08-18T21:13:29.389Z,13.17
2018-08-18T21:15:58.173Z,14.37
2018-08-18T21:18:26.819Z,14.70
2018-08-18T21:20:55.313Z,15.17
2018-08-18T21:23:25.026Z,15.60
2018-08-18T21:25:54.160Z,15.50
2018-08-18T21:28:24.942Z,15.07
2018-08-18T21:30:53.496Z,15.63
2018-08-18T21:33:24.997Z,15.03
2018-08-18T21:35:54.081Z,14.50
2018-08-18T21:38:22.565Z,16.00
2018-08-18T21:40:51.094Z,15.30
2018-08-18T21:43:30.781Z,14.43
2018-08-18T21:45:59.304Z,14.60
2018-08-18T21:48:39.237Z,16.80
2018-08-18T21:51:07.799Z,16.57
2018-08-18T21:53:36.297Z,18.57
2018-08-18T21:56:04.813Z,17.80
2018-08-18T21:58:33.270Z,17.83
2018-08-18T22:01:08.097Z,18.93
2018-08-18T22:03:36.657Z,17.60
2018-08-18T22:06:05.418Z,18.60
2018-08-18T22:08:33.896Z,17.97
2018-08-18T22:11:02.425Z,19.80
2018-08-18T22:13:40.830Z,18.20
2018-08-18T22:16:09.854Z,19.43
2018-08-18T22:18:38.445Z,19.07
2018-08-18T22:21:12.401Z,19.23
2018-08-18T22:23:40.893Z,19.23
2018-08-18T22:26:13.524Z,20.20
2018-08-18T22:28:42.009Z,20.50
2018-08-18T22:31:10.491Z,17.70
2018-08-18T22:33:41.398Z,18.37
2018-08-18T22:36:09.890Z,17.43
2018-08-18T22:38:38.675Z,18.43
2018-08-18T22:41:07.442Z,17.57
2018-08-18T22:43:36.462Z,17.57
2018-08-18T22:46:05.005Z,17.67
2018-08-18T22:48:33.561Z,17.30
2018-08-18T22:51:02.045Z,16.80
2018-08-18T22:53:30.550Z,16.90
2018-08-18T22:55:59.299Z,17.47
2018-08-18T22:58:27.782Z,17.83
2018-08-18T23:00:56.703Z,22.23
2018-08-18T23:03:25.275Z,20.73
2018-08-18T23:05:53.838Z,22.03
2018-08-18T23:08:22.418Z,22.57
2018-08-18T23:10:50.946Z,20.90
2018-08-18T23:13:19.457Z,19.50
2018-08-18T23:15:48.020Z,20.00
2018-08-18T23:18:16.574Z,18.83
2018-08-18T23:20:45.082Z,18.90
2018-08-18T23:23:13.568Z,19.90
2018-08-18T23:25:42.057Z,19.70
2018-08-18T23:28:10.576Z,19.23
2018-08-18T23:30:40.049Z,17.90
2018-08-18T23:33:10.479Z,19.23
2018-08-18T23:35:38.963Z,19.40
2018-08-18T23:38:07.486Z,18.60
2018-08-18T23:40:35.990Z,19.57
2018-08-18T23:43:04.461Z,19.70
2018-08-18T23:45:38.929Z,19.40
2018-08-18T23:48:09.694Z,20.00
2018-08-18T23:50:39.006Z,21.57
2018-08-18T23:53:10.700Z,19.93
2018-08-18T23:55:44.921Z,19.37
2018-08-18T23:58:13.823Z,19.40
